sensor_id;sensor_type;location;lat;lon;timestamp;P1;durP1;ratioP1;P2;durP2;ratioP2
19877;SDS011;10101;52.204;9.910;2023-02-07T00:00:53;13.53;;;8.30;;
19877;SDS011;10101;52.204;9.910;2023-02-07T00:03:20;9.63;;;5.97;;
19877;SDS011;10101;52.204;9.910;2023-02-07T00:05:46;9.30;;;5.50;;
19877;SDS011;10101;52.204;9.910;2023-02-07T00:08:13;10.73;;;5.27;;
19877;SDS011;10101;52.204;9.910;2023-02-07T00:10:40;8.27;;;4.93;;
19877;SDS011;10101;52.204;9.910;2023-02-07T00:13:07;7.23;;;4.53;;
19877;SDS011;10101;52.204;9.910;2023-02-07T00:15:35;7.00;;;4.83;;
19877;SDS011;10101;52.204;9.910;2023-02-07T00:18:02;7.27;;;4.57;;
19877;SDS011;10101;52.204;9.910;2023-02-07T00:20:28;7.50;;;4.73;;
19877;SDS011;10101;52.204;9.910;2023-02-07T00:22:55;7.20;;;4.70;;
19877;SDS011;10101;52.204;9.910;2023-02-07T00:25:22;9.03;;;4.73;;
19877;SDS011;10101;52.204;9.910;2023-02-07T00:27:48;7.33;;;4.90;;
19877;SDS011;10101;52.204;9.910;2023-02-07T00:30:15;7.93;;;4.70;;
19877;SDS011;10101;52.204;9.910;2023-02-07T00:32:43;8.53;;;5.17;;
19877;SDS011;10101;52.204;9.910;2023-02-07T00:35:10;10.13;;;5.13;;
19877;SDS011;10101;52.204;9.910;2023-02-07T00:37:37;6.77;;;4.40;;
19877;SDS011;10101;52.204;9.910;2023-02-07T00:40:04;7.40;;;4.60;;
19877;SDS011;10101;52.204;9.910;2023-02-07T00:42:31;7.83;;;4.60;;
19877;SDS011;10101;52.204;9.910;2023-02-07T00:44:58;9.17;;;5.30;;
19877;SDS011;10101;52.204;9.910;2023-02-07T00:47:25;6.23;;;4.30;;
19877;SDS011;10101;52.204;9.910;2023-02-07T00:49:53;7.00;;;4.60;;
19877;SDS011;10101;52.204;9.910;2023-02-07T00:52:20;7.17;;;4.40;;
19877;SDS011;10101;52.204;9.910;2023-02-07T00:54:46;8.47;;;5.27;;
19877;SDS011;10101;52.204;9.910;2023-02-07T00:57:13;9.37;;;4.87;;
19877;SDS011;10101;52.204;9.910;2023-02-07T00:59:40;8.33;;;5.13;;
19877;SDS011;10101;52.204;9.910;2023-02-07T01:02:07;9.30;;;5.60;;
19877;SDS011;10101;52.204;9.910;2023-02-07T01:04:33;9.27;;;5.30;;
19877;SDS011;10101;52.204;9.910;2023-02-07T01:07:01;6.27;;;4.20;;
19877;SDS011;10101;52.204;9.910;2023-02-07T01:09:28;9.10;;;4.93;;
19877;SDS011;10101;52.204;9.910;2023-02-07T01:11:55;6.00;;;4.33;;
19877;SDS011;10101;52.204;9.910;2023-02-07T01:14:22;7.53;;;4.17;;
19877;SDS011;10101;52.204;9.910;2023-02-07T01:16:49;8.20;;;4.73;;
19877;SDS011;10101;52.204;9.910;2023-02-07T01:19:16;8.77;;;4.60;;
19877;SDS011;10101;52.204;9.910;2023-02-07T01:21:43;8.67;;;4.90;;
19877;SDS011;10101;52.204;9.910;2023-02-07T01:24:11;8.40;;;5.13;;
19877;SDS011;10101;52.204;9.910;2023-02-07T01:26:38;8.57;;;5.30;;
19877;SDS011;10101;52.204;9.910;2023-02-07T01:29:05;12.47;;;5.30;;
19877;SDS011;10101;52.204;9.910;2023-02-07T01:31:32;8.13;;;5.43;;
19877;SDS011;10101;52.204;9.910;2023-02-07T01:34:00;10.90;;;5.20;;
19877;SDS011;10101;52.204;9.910;2023-02-07T01:36:27;10.47;;;5.73;;
19877;SDS011;10101;52.204;9.910;2023-02-07T01:38:55;9.17;;;5.10;;
19877;SDS011;10101;52.204;9.910;2023-02-07T01:41:24;9.30;;;4.73;;
19877;SDS011;10101;52.204;9.910;2023-02-07T01:43:53;10.10;;;5.87;;
19877;SDS011;10101;52.204;9.910;2023-02-07T01:46:21;9.70;;;5.20;;
19877;SDS011;10101;52.204;9.910;2023-02-07T01:48:48;8.67;;;5.53;;
19877;SDS011;10101;52.204;9.910;2023-02-07T01:51:16;9.90;;;5.33;;
19877;SDS011;10101;52.204;9.910;2023-02-07T01:53:43;8.47;;;5.50;;
19877;SDS011;10101;52.204;9.910;2023-02-07T01:56:11;9.27;;;4.73;;
19877;SDS011;10101;52.204;9.910;2023-02-07T01:58:41;8.13;;;4.50;;
19877;SDS011;10101;52.204;9.910;2023-02-07T02:01:10;7.70;;;4.90;;
19877;SDS011;10101;52.204;9.910;2023-02-07T02:03:42;10.17;;;5.17;;
19877;SDS011;10101;52.204;9.910;2023-02-07T02:06:12;9.73;;;5.07;;
19877;SDS011;10101;52.204;9.910;2023-02-07T02:08:40;9.67;;;5.20;;
19877;SDS011;10101;52.204;9.910;2023-02-07T02:11:11;10.40;;;5.63;;
19877;SDS011;10101;52.204;9.910;2023-02-07T02:13:56;10.40;;;5.33;;
19877;SDS011;10101;52.204;9.910;2023-02-07T02:16:32;8.07;;;4.63;;
19877;SDS011;10101;52.204;9.910;2023-02-07T02:19:16;9.23;;;5.17;;
19877;SDS011;10101;52.204;9.910;2023-02-07T02:22:07;8.80;;;4.67;;
19877;SDS011;10101;52.204;9.910;2023-02-07T02:31:20;9.43;;;5.23;;
19877;SDS011;10101;52.204;9.910;2023-02-07T02:34:21;9.80;;;5.30;;
19877;SDS011;10101;52.204;9.910;2023-02-07T02:36:58;8.03;;;5.03;;
19877;SDS011;10101;52.204;9.910;2023-02-07T02:39:30;7.47;;;4.80;;
19877;SDS011;10101;52.204;9.910;2023-02-07T02:42:03;7.33;;;4.60;;
19877;SDS011;10101;52.204;9.910;2023-02-07T02:44:36;8.10;;;4.90;;
19877;SDS011;10101;52.204;9.910;2023-02-07T02:47:06;9.33;;;5.13;;
19877;SDS011;10101;52.204;9.910;2023-02-07T02:49:37;9.53;;;5.33;;
19877;SDS011;10101;52.204;9.910;2023-02-07T02:52:04;7.67;;;4.90;;
19877;SDS011;10101;52.204;9.910;2023-02-07T02:54:33;7.70;;;4.60;;
19877;SDS011;10101;52.204;9.910;2023-02-07T02:57:15;8.80;;;4.90;;
19877;SDS011;10101;52.204;9.910;2023-02-07T03:03:00;9.27;;;5.47;;
19877;SDS011;10101;52.204;9.910;2023-02-07T03:05:51;8.87;;;4.97;;
19877;SDS011;10101;52.204;9.910;2023-02-07T03:08:30;6.73;;;4.70;;
19877;SDS011;10101;52.204;9.910;2023-02-07T03:11:06;10.00;;;5.40;;
19877;SDS011;10101;52.204;9.910;2023-02-07T03:13:37;10.03;;;5.40;;
19877;SDS011;10101;52.204;9.910;2023-02-07T03:16:12;11.13;;;5.07;;
19877;SDS011;10101;52.204;9.910;2023-02-07T03:18:46;10.70;;;5.57;;
19877;SDS011;10101;52.204;9.910;2023-02-07T03:21:22;8.93;;;5.23;;
19877;SDS011;10101;52.204;9.910;2023-02-07T03:23:52;10.40;;;5.33;;
19877;SDS011;10101;52.204;9.910;2023-02-07T03:26:22;8.60;;;5.13;;
19877;SDS011;10101;52.204;9.910;2023-02-07T03:28:50;7.93;;;5.20;;
19877;SDS011;10101;52.204;9.910;2023-02-07T03:31:20;9.40;;;5.63;;
19877;SDS011;10101;52.204;9.910;2023-02-07T03:33:50;9.03;;;5.23;;
19877;SDS011;10101;52.204;9.910;2023-02-07T03:36:23;10.33;;;5.40;;
19877;SDS011;10101;52.204;9.910;2023-02-07T03:38:54;12.00;;;6.07;;
19877;SDS011;10101;52.204;9.910;2023-02-07T03:41:22;8.50;;;5.33;;
19877;SDS011;10101;52.204;9.910;2023-02-07T03:43:55;8.90;;;5.20;;
19877;SDS011;10101;52.204;9.910;2023-02-07T03:46:24;9.93;;;5.53;;
19877;SDS011;10101;52.204;9.910;2023-02-07T03:48:51;8.87;;;5.13;;
19877;SDS011;10101;52.204;9.910;2023-02-07T03:51:18;11.00;;;5.53;;
19877;SDS011;10101;52.204;9.910;2023-02-07T03:53:46;8.83;;;4.23;;
19877;SDS011;10101;52.204;9.910;2023-02-07T03:56:13;10.03;;;6.13;;
19877;SDS011;10101;52.204;9.910;2023-02-07T03:58:39;9.70;;;5.53;;
19877;SDS011;10101;52.204;9.910;2023-02-07T04:01:06;8.70;;;4.93;;
19877;SDS011;10101;52.204;9.910;2023-02-07T04:03:33;13.53;;;6.77;;
19877;SDS011;10101;52.204;9.910;2023-02-07T04:05:59;12.80;;;6.60;;
19877;SDS011;10101;52.204;9.910;2023-02-07T04:08:26;7.97;;;4.93;;
19877;SDS011;10101;52.204;9.910;2023-02-07T04:10:58;11.83;;;6.60;;
19877;SDS011;10101;52.204;9.910;2023-02-07T04:13:26;10.40;;;5.93;;
19877;SDS011;10101;52.204;9.910;2023-02-07T04:15:53;11.10;;;6.20;;
19877;SDS011;10101;52.204;9.910;2023-02-07T04:18:19;8.60;;;5.17;;
19877;SDS011;10101;52.204;9.910;2023-02-07T04:20:47;9.87;;;5.60;;
19877;SDS011;10101;52.204;9.910;2023-02-07T04:23:14;12.53;;;6.13;;
19877;SDS011;10101;52.204;9.910;2023-02-07T04:25:40;11.67;;;6.47;;
19877;SDS011;10101;52.204;9.910;2023-02-07T04:28:08;14.63;;;7.07;;
19877;SDS011;10101;52.204;9.910;2023-02-07T04:30:35;10.30;;;5.77;;
19877;SDS011;10101;52.204;9.910;2023-02-07T04:33:02;8.00;;;4.77;;
19877;SDS011;10101;52.204;9.910;2023-02-07T04:35:29;8.53;;;5.23;;
19877;SDS011;10101;52.204;9.910;2023-02-07T04:37:56;11.43;;;5.80;;
19877;SDS011;10101;52.204;9.910;2023-02-07T04:40:24;11.50;;;5.93;;
19877;SDS011;10101;52.204;9.910;2023-02-07T04:42:51;9.23;;;5.33;;
19877;SDS011;10101;52.204;9.910;2023-02-07T04:45:19;10.67;;;5.03;;
19877;SDS011;10101;52.204;9.910;2023-02-07T04:47:45;9.27;;;5.23;;
19877;SDS011;10101;52.204;9.910;2023-02-07T04:50:12;7.83;;;5.07;;
19877;SDS011;10101;52.204;9.910;2023-02-07T04:52:39;9.17;;;5.20;;
19877;SDS011;10101;52.204;9.910;2023-02-07T04:55:06;12.03;;;6.37;;
19877;SDS011;10101;52.204;9.910;2023-02-07T04:57:34;10.63;;;5.97;;
19877;SDS011;10101;52.204;9.910;2023-02-07T05:00:01;11.27;;;6.23;;
19877;SDS011;10101;52.204;9.910;2023-02-07T05:02:30;12.33;;;6.60;;
19877;SDS011;10101;52.204;9.910;2023-02-07T05:04:57;13.00;;;6.87;;
19877;SDS011;10101;52.204;9.910;2023-02-07T05:07:23;8.83;;;4.80;;
19877;SDS011;10101;52.204;9.910;2023-02-07T05:09:50;10.37;;;5.67;;
19877;SDS011;10101;52.204;9.910;2023-02-07T05:12:17;10.20;;;5.57;;
19877;SDS011;10101;52.204;9.910;2023-02-07T05:14:44;10.70;;;5.47;;
19877;SDS011;10101;52.204;9.910;2023-02-07T05:17:11;12.17;;;6.53;;
19877;SDS011;10101;52.204;9.910;2023-02-07T05:19:39;12.23;;;6.07;;
19877;SDS011;10101;52.204;9.910;2023-02-07T05:22:05;9.40;;;5.70;;
19877;SDS011;10101;52.204;9.910;2023-02-07T05:24:32;12.70;;;5.97;;
19877;SDS011;10101;52.204;9.910;2023-02-07T05:26:59;9.83;;;5.20;;
19877;SDS011;10101;52.204;9.910;2023-02-07T05:29:25;12.10;;;6.33;;
19877;SDS011;10101;52.204;9.910;2023-02-07T05:31:52;10.90;;;6.23;;
19877;SDS011;10101;52.204;9.910;2023-02-07T05:34:37;10.30;;;6.07;;
19877;SDS011;10101;52.204;9.910;2023-02-07T05:37:05;10.67;;;5.90;;
19877;SDS011;10101;52.204;9.910;2023-02-07T05:39:32;10.27;;;5.50;;
19877;SDS011;10101;52.204;9.910;2023-02-07T05:41:58;13.63;;;5.73;;
19877;SDS011;10101;52.204;9.910;2023-02-07T05:44:26;10.07;;;5.60;;
19877;SDS011;10101;52.204;9.910;2023-02-07T05:46:53;9.90;;;5.70;;
19877;SDS011;10101;52.204;9.910;2023-02-07T05:49:20;13.37;;;6.40;;
19877;SDS011;10101;52.204;9.910;2023-02-07T05:51:48;11.73;;;6.47;;
19877;SDS011;10101;52.204;9.910;2023-02-07T05:54:14;12.53;;;7.70;;
19877;SDS011;10101;52.204;9.910;2023-02-07T05:56:41;12.60;;;7.30;;
19877;SDS011;10101;52.204;9.910;2023-02-07T05:59:08;15.60;;;7.40;;
19877;SDS011;10101;52.204;9.910;2023-02-07T06:01:34;12.73;;;6.27;;
19877;SDS011;10101;52.204;9.910;2023-02-07T06:04:01;16.07;;;7.83;;
19877;SDS011;10101;52.204;9.910;2023-02-07T06:06:28;11.77;;;6.80;;
19877;SDS011;10101;52.204;9.910;2023-02-07T06:08:56;12.33;;;6.37;;
19877;SDS011;10101;52.204;9.910;2023-02-07T06:11:23;9.50;;;4.67;;
19877;SDS011;10101;52.204;9.910;2023-02-07T06:13:50;11.60;;;6.40;;
19877;SDS011;10101;52.204;9.910;2023-02-07T06:16:16;12.23;;;5.93;;
19877;SDS011;10101;52.204;9.910;2023-02-07T06:18:43;12.50;;;6.00;;
19877;SDS011;10101;52.204;9.910;2023-02-07T06:21:10;13.17;;;6.90;;
19877;SDS011;10101;52.204;9.910;2023-02-07T06:23:37;14.03;;;7.10;;
19877;SDS011;10101;52.204;9.910;2023-02-07T06:26:05;11.70;;;5.90;;
19877;SDS011;10101;52.204;9.910;2023-02-07T06:28:32;12.80;;;6.80;;
19877;SDS011;10101;52.204;9.910;2023-02-07T06:30:59;14.10;;;7.37;;
19877;SDS011;10101;52.204;9.910;2023-02-07T06:33:26;15.53;;;8.60;;
19877;SDS011;10101;52.204;9.910;2023-02-07T06:35:52;18.77;;;7.87;;
19877;SDS011;10101;52.204;9.910;2023-02-07T06:38:20;13.47;;;7.13;;
19877;SDS011;10101;52.204;9.910;2023-02-07T06:40:46;9.83;;;6.37;;
19877;SDS011;10101;52.204;9.910;2023-02-07T06:43:15;14.40;;;7.67;;
19877;SDS011;10101;52.204;9.910;2023-02-07T06:45:41;13.50;;;7.67;;
19877;SDS011;10101;52.204;9.910;2023-02-07T06:48:08;13.73;;;7.23;;
19877;SDS011;10101;52.204;9.910;2023-02-07T06:50:35;14.83;;;8.33;;
19877;SDS011;10101;52.204;9.910;2023-02-07T06:53:02;18.53;;;9.80;;
19877;SDS011;10101;52.204;9.910;2023-02-07T06:55:30;18.10;;;9.27;;
19877;SDS011;10101;52.204;9.910;2023-02-07T06:57:57;11.63;;;6.40;;
19877;SDS011;10101;52.204;9.910;2023-02-07T07:00:25;12.43;;;7.13;;
19877;SDS011;10101;52.204;9.910;2023-02-07T07:02:52;13.17;;;7.57;;
19877;SDS011;10101;52.204;9.910;2023-02-07T07:05:19;14.23;;;7.30;;
19877;SDS011;10101;52.204;9.910;2023-02-07T07:07:46;14.47;;;7.27;;
19877;SDS011;10101;52.204;9.910;2023-02-07T07:10:15;14.40;;;7.53;;
19877;SDS011;10101;52.204;9.910;2023-02-07T07:12:42;22.00;;;7.57;;
19877;SDS011;10101;52.204;9.910;2023-02-07T07:15:09;17.33;;;8.00;;
19877;SDS011;10101;52.204;9.910;2023-02-07T07:17:37;19.00;;;7.57;;
19877;SDS011;10101;52.204;9.910;2023-02-07T07:20:05;13.03;;;7.50;;
19877;SDS011;10101;52.204;9.910;2023-02-07T07:22:32;13.33;;;6.63;;
19877;SDS011;10101;52.204;9.910;2023-02-07T07:24:59;16.23;;;7.80;;
19877;SDS011;10101;52.204;9.910;2023-02-07T07:27:26;17.00;;;7.47;;
19877;SDS011;10101;52.204;9.910;2023-02-07T07:29:52;19.83;;;8.17;;
19877;SDS011;10101;52.204;9.910;2023-02-07T07:32:20;26.33;;;8.57;;
19877;SDS011;10101;52.204;9.910;2023-02-07T07:34:48;16.23;;;7.57;;
19877;SDS011;10101;52.204;9.910;2023-02-07T07:37:14;19.03;;;8.93;;
19877;SDS011;10101;52.204;9.910;2023-02-07T07:39:41;14.57;;;7.33;;
19877;SDS011;10101;52.204;9.910;2023-02-07T07:42:09;13.50;;;7.10;;
19877;SDS011;10101;52.204;9.910;2023-02-07T07:44:35;12.20;;;6.80;;
19877;SDS011;10101;52.204;9.910;2023-02-07T07:47:02;13.70;;;6.90;;
19877;SDS011;10101;52.204;9.910;2023-02-07T07:49:29;17.90;;;7.40;;
19877;SDS011;10101;52.204;9.910;2023-02-07T07:51:57;12.00;;;7.27;;
19877;SDS011;10101;52.204;9.910;2023-02-07T07:54:24;16.47;;;7.97;;
19877;SDS011;10101;52.204;9.910;2023-02-07T07:56:51;14.87;;;7.60;;
19877;SDS011;10101;52.204;9.910;2023-02-07T07:59:18;18.57;;;8.53;;
19877;SDS011;10101;52.204;9.910;2023-02-07T08:01:44;17.23;;;8.10;;
19877;SDS011;10101;52.204;9.910;2023-02-07T08:04:11;12.70;;;6.90;;
19877;SDS011;10101;52.204;9.910;2023-02-07T08:06:38;14.43;;;7.47;;
19877;SDS011;10101;52.204;9.910;2023-02-07T08:09:06;14.07;;;7.70;;
19877;SDS011;10101;52.204;9.910;2023-02-07T08:11:33;20.03;;;9.27;;
19877;SDS011;10101;52.204;9.910;2023-02-07T08:13:59;17.97;;;9.73;;
19877;SDS011;10101;52.204;9.910;2023-02-07T08:16:26;14.80;;;7.50;;
19877;SDS011;10101;52.204;9.910;2023-02-07T08:18:53;14.47;;;7.80;;
19877;SDS011;10101;52.204;9.910;2023-02-07T08:21:19;15.63;;;7.97;;
19877;SDS011;10101;52.204;9.910;2023-02-07T08:23:46;19.23;;;8.07;;
19877;SDS011;10101;52.204;9.910;2023-02-07T08:26:14;16.30;;;8.47;;
19877;SDS011;10101;52.204;9.910;2023-02-07T08:28:41;18.93;;;8.37;;
19877;SDS011;10101;52.204;9.910;2023-02-07T08:31:08;15.63;;;8.10;;
19877;SDS011;10101;52.204;9.910;2023-02-07T08:33:36;19.83;;;10.00;;
19877;SDS011;10101;52.204;9.910;2023-02-07T08:36:03;21.00;;;9.87;;
19877;SDS011;10101;52.204;9.910;2023-02-07T08:38:32;20.73;;;10.40;;
19877;SDS011;10101;52.204;9.910;2023-02-07T08:40:59;22.87;;;11.00;;
19877;SDS011;10101;52.204;9.910;2023-02-07T08:43:27;20.17;;;10.33;;
19877;SDS011;10101;52.204;9.910;2023-02-07T08:45:54;20.33;;;9.73;;
19877;SDS011;10101;52.204;9.910;2023-02-07T08:48:20;17.87;;;10.27;;
19877;SDS011;10101;52.204;9.910;2023-02-07T08:50:47;16.90;;;9.53;;
19877;SDS011;10101;52.204;9.910;2023-02-07T08:53:14;15.83;;;8.73;;
19877;SDS011;10101;52.204;9.910;2023-02-07T08:55:41;15.57;;;8.60;;
19877;SDS011;10101;52.204;9.910;2023-02-07T08:58:08;15.97;;;9.00;;
19877;SDS011;10101;52.204;9.910;2023-02-07T09:00:37;15.20;;;8.47;;
19877;SDS011;10101;52.204;9.910;2023-02-07T09:03:03;15.87;;;8.57;;
19877;SDS011;10101;52.204;9.910;2023-02-07T09:05:30;14.67;;;8.40;;
19877;SDS011;10101;52.204;9.910;2023-02-07T09:07:57;13.93;;;8.63;;
19877;SDS011;10101;52.204;9.910;2023-02-07T09:10:24;12.67;;;8.13;;
19877;SDS011;10101;52.204;9.910;2023-02-07T09:12:51;15.97;;;8.97;;
19877;SDS011;10101;52.204;9.910;2023-02-07T09:15:18;17.97;;;8.30;;
19877;SDS011;10101;52.204;9.910;2023-02-07T09:17:46;12.77;;;7.87;;
19877;SDS011;10101;52.204;9.910;2023-02-07T09:20:12;14.63;;;8.37;;
19877;SDS011;10101;52.204;9.910;2023-02-07T09:22:39;17.87;;;8.57;;
19877;SDS011;10101;52.204;9.910;2023-02-07T09:25:20;15.10;;;9.00;;
19877;SDS011;10101;52.204;9.910;2023-02-07T09:27:47;15.40;;;8.77;;
19877;SDS011;10101;52.204;9.910;2023-02-07T09:30:14;13.90;;;8.27;;
19877;SDS011;10101;52.204;9.910;2023-02-07T09:32:41;14.07;;;8.70;;
19877;SDS011;10101;52.204;9.910;2023-02-07T09:35:09;13.83;;;8.93;;
19877;SDS011;10101;52.204;9.910;2023-02-07T09:37:36;13.53;;;8.23;;
19877;SDS011;10101;52.204;9.910;2023-02-07T09:40:03;13.93;;;8.20;;
19877;SDS011;10101;52.204;9.910;2023-02-07T09:42:32;14.67;;;8.77;;
19877;SDS011;10101;52.204;9.910;2023-02-07T09:45:07;13.63;;;7.93;;
19877;SDS011;10101;52.204;9.910;2023-02-07T09:47:37;16.33;;;8.80;;
19877;SDS011;10101;52.204;9.910;2023-02-07T09:50:12;15.50;;;8.67;;
19877;SDS011;10101;52.204;9.910;2023-02-07T09:52:44;16.80;;;8.87;;
19877;SDS011;10101;52.204;9.910;2023-02-07T09:55:13;14.70;;;8.13;;
19877;SDS011;10101;52.204;9.910;2023-02-07T09:57:44;15.60;;;9.50;;
19877;SDS011;10101;52.204;9.910;2023-02-07T10:00:18;15.47;;;8.43;;
19877;SDS011;10101;52.204;9.910;2023-02-07T10:02:47;16.77;;;9.23;;
19877;SDS011;10101;52.204;9.910;2023-02-07T10:05:24;14.90;;;8.27;;
19877;SDS011;10101;52.204;9.910;2023-02-07T10:07:54;14.33;;;8.40;;
19877;SDS011;10101;52.204;9.910;2023-02-07T10:10:25;16.13;;;8.93;;
19877;SDS011;10101;52.204;9.910;2023-02-07T10:13:01;16.00;;;8.80;;
19877;SDS011;10101;52.204;9.910;2023-02-07T10:15:49;13.60;;;7.47;;
19877;SDS011;10101;52.204;9.910;2023-02-07T10:18:39;18.97;;;8.73;;
19877;SDS011;10101;52.204;9.910;2023-02-07T10:21:14;16.10;;;8.13;;
19877;SDS011;10101;52.204;9.910;2023-02-07T10:23:49;14.57;;;8.40;;
19877;SDS011;10101;52.204;9.910;2023-02-07T10:26:49;16.13;;;8.53;;
19877;SDS011;10101;52.204;9.910;2023-02-07T10:29:22;16.37;;;8.17;;
19877;SDS011;10101;52.204;9.910;2023-02-07T10:31:58;13.50;;;7.37;;
19877;SDS011;10101;52.204;9.910;2023-02-07T10:34:29;14.20;;;7.83;;
19877;SDS011;10101;52.204;9.910;2023-02-07T10:37:00;12.30;;;7.10;;
19877;SDS011;10101;52.204;9.910;2023-02-07T10:39:41;12.43;;;7.27;;
19877;SDS011;10101;52.204;9.910;2023-02-07T10:42:12;13.43;;;7.30;;
19877;SDS011;10101;52.204;9.910;2023-02-07T10:44:40;15.47;;;8.40;;
19877;SDS011;10101;52.204;9.910;2023-02-07T10:47:09;15.53;;;7.90;;
19877;SDS011;10101;52.204;9.910;2023-02-07T10:49:40;12.23;;;7.47;;
19877;SDS011;10101;52.204;9.910;2023-02-07T10:52:13;16.17;;;8.50;;
19877;SDS011;10101;52.204;9.910;2023-02-07T10:54:53;15.67;;;8.57;;
19877;SDS011;10101;52.204;9.910;2023-02-07T10:57:21;16.07;;;8.13;;
19877;SDS011;10101;52.204;9.910;2023-02-07T10:59:48;13.43;;;8.10;;
19877;SDS011;10101;52.204;9.910;2023-02-07T11:08:22;13.30;;;7.47;;
19877;SDS011;10101;52.204;9.910;2023-02-07T11:10:50;13.80;;;8.03;;
19877;SDS011;10101;52.204;9.910;2023-02-07T11:13:19;14.20;;;7.50;;
19877;SDS011;10101;52.204;9.910;2023-02-07T11:15:49;11.33;;;6.87;;
19877;SDS011;10101;52.204;9.910;2023-02-07T11:18:25;13.50;;;7.30;;
19877;SDS011;10101;52.204;9.910;2023-02-07T11:21:01;12.70;;;7.00;;
19877;SDS011;10101;52.204;9.910;2023-02-07T11:23:31;15.37;;;7.90;;
19877;SDS011;10101;52.204;9.910;2023-02-07T11:25:58;10.67;;;7.03;;
19877;SDS011;10101;52.204;9.910;2023-02-07T11:28:28;13.10;;;7.40;;
19877;SDS011;10101;52.204;9.910;2023-02-07T11:30:57;10.80;;;6.93;;
19877;SDS011;10101;52.204;9.910;2023-02-07T11:33:27;14.37;;;7.67;;
19877;SDS011;10101;52.204;9.910;2023-02-07T11:36:00;13.07;;;7.47;;
19877;SDS011;10101;52.204;9.910;2023-02-07T11:38:36;13.73;;;8.10;;
19877;SDS011;10101;52.204;9.910;2023-02-07T11:41:08;11.60;;;6.60;;
19877;SDS011;10101;52.204;9.910;2023-02-07T11:43:50;13.87;;;6.73;;
19877;SDS011;10101;52.204;9.910;2023-02-07T11:46:19;11.67;;;6.57;;
19877;SDS011;10101;52.204;9.910;2023-02-07T11:48:48;12.37;;;6.37;;
19877;SDS011;10101;52.204;9.910;2023-02-07T11:51:17;12.43;;;6.90;;
19877;SDS011;10101;52.204;9.910;2023-02-07T11:53:46;11.20;;;6.57;;
19877;SDS011;10101;52.204;9.910;2023-02-07T11:56:20;11.80;;;6.77;;
19877;SDS011;10101;52.204;9.910;2023-02-07T11:58:49;11.77;;;6.20;;
19877;SDS011;10101;52.204;9.910;2023-02-07T12:01:21;11.10;;;6.47;;
19877;SDS011;10101;52.204;9.910;2023-02-07T12:03:51;9.47;;;5.90;;
19877;SDS011;10101;52.204;9.910;2023-02-07T12:06:22;12.73;;;6.83;;
19877;SDS011;10101;52.204;9.910;2023-02-07T12:08:56;12.03;;;6.40;;
19877;SDS011;10101;52.204;9.910;2023-02-07T12:11:24;13.17;;;6.63;;
19877;SDS011;10101;52.204;9.910;2023-02-07T12:13:58;14.07;;;6.67;;
19877;SDS011;10101;52.204;9.910;2023-02-07T12:16:31;10.23;;;5.83;;
19877;SDS011;10101;52.204;9.910;2023-02-07T12:19:04;14.67;;;7.83;;
19877;SDS011;10101;52.204;9.910;2023-02-07T12:21:36;11.20;;;6.33;;
19877;SDS011;10101;52.204;9.910;2023-02-07T12:24:12;11.40;;;5.97;;
19877;SDS011;10101;52.204;9.910;2023-02-07T12:26:46;12.13;;;6.83;;
19877;SDS011;10101;52.204;9.910;2023-02-07T12:29:21;11.57;;;6.27;;
19877;SDS011;10101;52.204;9.910;2023-02-07T12:31:59;10.10;;;6.27;;
19877;SDS011;10101;52.204;9.910;2023-02-07T12:34:31;10.60;;;6.20;;
19877;SDS011;10101;52.204;9.910;2023-02-07T12:37:02;10.40;;;6.30;;
19877;SDS011;10101;52.204;9.910;2023-02-07T12:39:40;13.63;;;6.27;;
19877;SDS011;10101;52.204;9.910;2023-02-07T12:42:14;10.07;;;6.20;;
19877;SDS011;10101;52.204;9.910;2023-02-07T12:44:55;10.90;;;6.10;;
19877;SDS011;10101;52.204;9.910;2023-02-07T12:47:26;9.17;;;5.77;;
19877;SDS011;10101;52.204;9.910;2023-02-07T12:50:03;9.07;;;5.63;;
19877;SDS011;10101;52.204;9.910;2023-02-07T12:52:40;10.80;;;6.20;;
19877;SDS011;10101;52.204;9.910;2023-02-07T12:55:19;11.67;;;6.47;;
19877;SDS011;10101;52.204;9.910;2023-02-07T12:57:59;11.00;;;6.20;;
19877;SDS011;10101;52.204;9.910;2023-02-07T13:00:36;9.17;;;5.70;;
19877;SDS011;10101;52.204;9.910;2023-02-07T13:03:17;11.33;;;6.40;;
19877;SDS011;10101;52.204;9.910;2023-02-07T13:06:03;10.03;;;6.03;;
19877;SDS011;10101;52.204;9.910;2023-02-07T13:08:40;10.53;;;6.30;;
19877;SDS011;10101;52.204;9.910;2023-02-07T13:11:19;11.47;;;6.20;;
19877;SDS011;10101;52.204;9.910;2023-02-07T13:13:55;11.57;;;6.23;;
19877;SDS011;10101;52.204;9.910;2023-02-07T13:16:32;9.33;;;6.03;;
19877;SDS011;10101;52.204;9.910;2023-02-07T13:19:06;10.33;;;5.90;;
19877;SDS011;10101;52.204;9.910;2023-02-07T13:21:42;10.57;;;6.20;;
19877;SDS011;10101;52.204;9.910;2023-02-07T13:24:15;11.17;;;6.10;;
19877;SDS011;10101;52.204;9.910;2023-02-07T13:26:48;11.40;;;6.40;;
19877;SDS011;10101;52.204;9.910;2023-02-07T13:29:23;11.30;;;6.13;;
19877;SDS011;10101;52.204;9.910;2023-02-07T13:31:53;11.07;;;6.20;;
19877;SDS011;10101;52.204;9.910;2023-02-07T13:34:22;11.37;;;6.53;;
19877;SDS011;10101;52.204;9.910;2023-02-07T13:36:51;10.97;;;6.23;;
19877;SDS011;10101;52.204;9.910;2023-02-07T13:39:19;11.17;;;6.00;;
19877;SDS011;10101;52.204;9.910;2023-02-07T13:41:58;9.77;;;5.80;;
19877;SDS011;10101;52.204;9.910;2023-02-07T13:49:56;12.50;;;6.50;;
19877;SDS011;10101;52.204;9.910;2023-02-07T13:52:31;12.10;;;6.03;;
19877;SDS011;10101;52.204;9.910;2023-02-07T13:55:04;10.53;;;5.90;;
19877;SDS011;10101;52.204;9.910;2023-02-07T13:57:45;11.60;;;5.97;;
19877;SDS011;10101;52.204;9.910;2023-02-07T14:00:30;11.90;;;6.33;;
19877;SDS011;10101;52.204;9.910;2023-02-07T14:03:03;9.37;;;5.70;;
19877;SDS011;10101;52.204;9.910;2023-02-07T14:05:32;10.07;;;5.93;;
19877;SDS011;10101;52.204;9.910;2023-02-07T14:08:01;11.87;;;6.40;;
19877;SDS011;10101;52.204;9.910;2023-02-07T14:10:43;12.40;;;6.87;;
19877;SDS011;10101;52.204;9.910;2023-02-07T14:13:20;12.50;;;6.00;;
19877;SDS011;10101;52.204;9.910;2023-02-07T14:15:53;11.43;;;6.43;;
19877;SDS011;10101;52.204;9.910;2023-02-07T14:21:23;13.03;;;6.97;;
19877;SDS011;10101;52.204;9.910;2023-02-07T14:24:01;10.97;;;6.33;;
19877;SDS011;10101;52.204;9.910;2023-02-07T14:32:44;14.07;;;7.23;;
19877;SDS011;10101;52.204;9.910;2023-02-07T14:35:33;13.77;;;6.43;;
19877;SDS011;10101;52.204;9.910;2023-02-07T14:38:07;11.10;;;6.07;;
19877;SDS011;10101;52.204;9.910;2023-02-07T14:40:50;10.93;;;6.17;;
19877;SDS011;10101;52.204;9.910;2023-02-07T14:43:22;10.63;;;6.03;;
19877;SDS011;10101;52.204;9.910;2023-02-07T14:46:00;11.17;;;5.80;;
19877;SDS011;10101;52.204;9.910;2023-02-07T14:48:34;10.20;;;5.93;;
19877;SDS011;10101;52.204;9.910;2023-02-07T14:51:10;9.93;;;5.60;;
19877;SDS011;10101;52.204;9.910;2023-02-07T14:53:39;9.27;;;5.03;;
19877;SDS011;10101;52.204;9.910;2023-02-07T14:56:11;10.07;;;5.10;;
19877;SDS011;10101;52.204;9.910;2023-02-07T14:58:50;11.43;;;5.03;;
19877;SDS011;10101;52.204;9.910;2023-02-07T15:01:23;9.70;;;5.10;;
19877;SDS011;10101;52.204;9.910;2023-02-07T15:03:58;11.00;;;5.07;;
19877;SDS011;10101;52.204;9.910;2023-02-07T15:06:27;12.70;;;4.80;;
19877;SDS011;10101;52.204;9.910;2023-02-07T15:08:54;7.23;;;4.37;;
19877;SDS011;10101;52.204;9.910;2023-02-07T15:11:23;8.80;;;4.90;;
19877;SDS011;10101;52.204;9.910;2023-02-07T15:13:51;7.80;;;4.07;;
19877;SDS011;10101;52.204;9.910;2023-02-07T15:16:23;9.97;;;4.80;;
19877;SDS011;10101;52.204;9.910;2023-02-07T15:18:52;8.50;;;4.10;;
19877;SDS011;10101;52.204;9.910;2023-02-07T15:21:26;8.80;;;5.07;;
19877;SDS011;10101;52.204;9.910;2023-02-07T15:23:57;11.33;;;5.37;;
19877;SDS011;10101;52.204;9.910;2023-02-07T15:26:28;10.73;;;5.27;;